Time;durP1;ratioP1;P1;durP2;ratioP2;P2;SDS_P1;SDS_P2;PMS_P1;PMS_P2;Temp;Humidity;BMP_temperature;BMP_pressure;BME280_temperature;BME280_humidity;BME280_pressure;Samples;Min_cycle;Max_cycle;Signal;HPM_P1;HPM_P2
2022/11/29 00:01:23;;;;;;;29.10;17.00;;;;;;;5.78;100.00;96376.09;4998735;28;20042;-67
2022/11/29 00:03:49;;;;;;;28.60;16.42;;;;;;;5.76;100.00;96379.13;5003601;28;20045;-68
2022/11/29 00:06:18;;;;;;;22.95;15.20;;;;;;;5.72;100.00;96379.03;4999620;28;20137;-67
2022/11/29 00:08:44;;;;;;;26.83;16.63;;;;;;;5.70;100.00;96375.88;5004462;28;20491;-66
2022/11/29 00:11:13;;;;;;;26.95;15.68;;;;;;;5.88;100.00;96370.19;4982709;28;20062;-66
2022/11/29 00:13:39;;;;;;;25.88;14.90;;;;;;;6.06;100.00;96368.00;4983598;28;20046;-68
2022/11/29 00:16:07;;;;;;;25.70;15.00;;;;;;;6.16;100.00;96370.25;4977860;28;20051;-71
2022/11/29 00:18:33;;;;;;;23.85;13.93;;;;;;;6.15;100.00;96374.09;4985358;28;20045;-67
2022/11/29 00:20:59;;;;;;;29.40;15.57;;;;;;;6.10;100.00;96372.41;4993729;28;20050;-70
2022/11/29 00:23:24;;;;;;;23.38;14.70;;;;;;;6.05;100.00;96369.94;4986487;28;20249;-68
2022/11/29 00:25:50;;;;;;;22.80;14.10;;;;;;;6.03;100.00;96369.50;4982820;28;20057;-68
2022/11/29 00:28:16;;;;;;;24.30;14.20;;;;;;;5.99;100.00;96368.59;4978847;28;20045;-67
2022/11/29 00:30:41;;;;;;;18.88;12.88;;;;;;;5.98;100.00;96368.91;4997384;28;20045;-68
2022/11/29 00:33:06;;;;;;;19.95;12.90;;;;;;;5.91;100.00;96370.28;4998117;28;20050;-65
2022/11/29 00:35:32;;;;;;;21.05;12.50;;;;;;;5.93;100.00;96365.28;5002683;28;20046;-67
2022/11/29 00:37:57;;;;;;;21.58;13.25;;;;;;;5.94;100.00;96364.16;5003391;28;20038;-67
2022/11/29 00:40:23;;;;;;;16.27;12.25;;;;;;;5.93;100.00;96361.78;4997464;28;20621;-66
2022/11/29 00:42:48;;;;;;;18.13;11.48;;;;;;;5.88;100.00;96362.03;5003109;28;20766;-65
2022/11/29 00:45:14;;;;;;;17.25;12.30;;;;;;;5.88;100.00;96362.03;4996885;28;20046;-68
2022/11/29 00:47:39;;;;;;;19.50;12.10;;;;;;;5.89;100.00;96352.75;5002434;28;20046;-67
2022/11/29 00:50:05;;;;;;;19.27;12.20;;;;;;;5.83;100.00;96354.09;4997829;28;20499;-70
2022/11/29 00:52:31;;;;;;;19.90;11.50;;;;;;;5.82;100.00;96360.69;5002126;28;20127;-65
2022/11/29 00:54:56;;;;;;;23.17;14.35;;;;;;;5.78;100.00;96354.34;5002589;28;20651;-66
2022/11/29 00:57:22;;;;;;;20.95;14.50;;;;;;;5.76;100.00;96357.41;4998878;28;20500;-66
2022/11/29 00:59:47;;;;;;;20.63;12.43;;;;;;;5.74;100.00;96354.22;5002621;28;20125;-67
2022/11/29 01:02:13;;;;;;;20.10;11.95;;;;;;;5.71;100.00;96357.66;4999014;28;20038;-67
2022/11/29 01:04:38;;;;;;;20.00;11.60;;;;;;;5.68;100.00;96363.78;5001966;28;20038;-67
2022/11/29 01:07:03;;;;;;;18.45;11.30;;;;;;;5.64;100.00;96362.88;4998157;28;20175;-69
2022/11/29 01:09:29;;;;;;;18.50;11.57;;;;;;;5.60;100.00;96361.97;4999852;28;20119;-66
2022/11/29 01:11:54;;;;;;;17.48;10.40;;;;;;;5.56;100.00;96356.41;5002815;28;20390;-66
2022/11/29 01:14:19;;;;;;;15.77;10.30;;;;;;;5.58;100.00;96358.81;4997600;28;20052;-65
2022/11/29 01:16:45;;;;;;;15.05;11.02;;;;;;;5.64;100.00;96368.31;5001626;28;20168;-68
2022/11/29 01:19:10;;;;;;;16.17;10.50;;;;;;;5.61;100.00;96364.34;4995962;28;20045;-64
2022/11/29 01:21:36;;;;;;;19.83;11.95;;;;;;;5.57;100.00;96362.66;5002138;28;20054;-69
2022/11/29 01:24:02;;;;;;;16.75;10.82;;;;;;;5.54;100.00;96362.19;5000368;28;20387;-72
2022/11/29 01:26:29;;;;;;;19.77;12.07;;;;;;;5.55;100.00;96363.00;4998141;28;20503;-66
2022/11/29 01:28:56;;;;;;;18.95;11.82;;;;;;;5.52;100.00;96360.97;4996370;28;20042;-65
2022/11/29 01:31:35;;;;;;;18.67;13.25;;;;;;;5.42;100.00;96364.94;4995122;28;20046;-69
2022/11/29 01:34:02;;;;;;;19.90;12.73;;;;;;;5.38;100.00;96368.69;5002794;28;20053;-65
2022/11/29 01:36:29;;;;;;;19.65;12.55;;;;;;;5.40;100.00;96369.91;5000050;28;20053;-68
2022/11/29 01:38:54;;;;;;;21.25;13.52;;;;;;;5.38;100.00;96368.69;5001777;28;20049;-68
2022/11/29 01:41:23;;;;;;;21.45;14.13;;;;;;;5.33;100.00;96372.41;4996660;28;20049;-65
2022/11/29 01:44:03;;;;;;;19.67;12.57;;;;;;;5.48;100.00;96363.56;4999141;28;20106;-66
2022/11/29 01:46:32;;;;;;;18.45;12.65;;;;;;;5.43;100.00;96371.16;4998425;28;20037;-68
2022/11/29 01:49:02;;;;;;;;;;;;;;;5.35;100.00;96364.72;5002668;28;20071;-69
2022/11/29 01:51:29;;;;;;;21.20;13.27;;;;;;;5.25;100.00;96370.59;4995316;28;19964;-69
2022/11/29 01:53:55;;;;;;;24.17;14.25;;;;;;;5.16;100.00;96368.78;5001721;28;20045;-66
2022/11/29 01:56:22;;;;;;;23.85;14.77;;;;;;;5.12;100.00;96367.88;4996375;28;20042;-67
2022/11/29 01:58:48;;;;;;;26.83;14.63;;;;;;;5.02;100.00;96370.25;5001895;28;20046;-70
2022/11/29 02:01:14;;;;;;;24.25;15.57;;;;;;;4.95;100.00;96370.81;4997775;28;20559;-67
2022/11/29 02:03:39;;;;;;;27.58;16.65;;;;;;;4.94;100.00;96369.25;5001388;28;20097;-68
2022/11/29 02:06:06;;;;;;;31.88;18.77;;;;;;;4.90;100.00;96371.84;4994660;28;20037;-68
2022/11/29 02:08:41;;;;;;;27.77;17.23;;;;;;;4.87;100.00;96364.34;5001210;28;20042;-68
2022/11/29 02:11:28;;;;;;;28.63;16.38;;;;;;;4.91;100.00;96362.53;4996245;28;20507;-70
2022/11/29 02:14:32;;;;;;;27.17;15.93;;;;;;;4.97;100.00;96361.22;5001453;28;20038;-69
2022/11/29 02:17:13;;;;;;;25.67;16.17;;;;;;;5.01;100.00;96357.84;4977394;28;20049;-67
2022/11/29 02:20:10;;;;;;;29.92;17.88;;;;;;;4.96;100.00;96350.69;5000794;28;20404;-68
2022/11/29 02:23:05;;;;;;;28.35;16.60;;;;;;;4.95;100.00;96355.34;5000471;28;20049;-67
2022/11/29 02:25:58;;;;;;;26.15;16.10;;;;;;;5.09;100.00;96348.78;4999625;28;20039;-68
2022/11/29 02:28:45;;;;;;;30.48;16.48;;;;;;;5.16;100.00;96349.00;5001883;28;20522;-68
2022/11/29 02:31:11;;;;;;;27.48;16.35;;;;;;;5.15;100.00;96355.56;4991823;28;20121;-71
2022/11/29 02:33:58;;;;;;;25.63;16.50;;;;;;;5.16;100.00;96357.91;5001935;28;20141;-68
2022/11/29 02:36:35;;;;;;;25.88;15.65;;;;;;;5.24;100.00;96358.16;4995288;28;20838;-68
2022/11/29 02:39:36;;;;;;;25.33;14.70;;;;;;;5.20;100.00;96358.03;5000804;28;20064;-67
2022/11/29 02:42:47;;;;;;;23.33;15.07;;;;;;;5.17;100.00;96361.44;4992613;28;20072;-70
2022/11/29 02:45:40;;;;;;;23.60;15.85;;;;;;;5.15;100.00;96355.56;4976874;28;20044;-66
2022/11/29 02:48:09;;;;;;;27.80;16.13;;;;;;;5.21;100.00;96365.06;4996561;28;20137;-68
2022/11/29 02:50:42;;;;;;;21.55;15.18;;;;;;;5.26;100.00;96367.56;5001779;28;20125;-68
2022/11/29 02:53:23;;;;;;;27.15;15.90;;;;;;;5.26;100.00;96359.41;4999659;28;20045;-68
2022/11/29 02:56:28;;;;;;;25.13;15.32;;;;;;;5.29;100.00;96369.56;5004382;28;20041;-68
2022/11/29 02:59:04;;;;;;;22.33;15.00;;;;;;;5.40;100.00;96369.13;5003437;28;20041;-68
2022/11/29 03:01:40;;;;;;;21.10;15.48;;;;;;;5.40;100.00;96375.34;5004348;28;20384;-68
2022/11/29 03:04:38;;;;;;;23.80;15.90;;;;;;;5.37;100.00;96367.88;5000714;28;20048;-72
2022/11/29 03:07:24;;;;;;;21.50;15.13;;;;;;;5.40;100.00;96358.25;5002346;28;20049;-71
2022/11/29 03:09:55;;;;;;;21.20;14.30;;;;;;;5.42;100.00;96359.50;5005266;28;20052;-67
2022/11/29 03:12:28;;;;;;;21.08;15.10;;;;;;;5.40;100.00;96363.69;4999822;28;20045;-67
2022/11/29 03:15:15;;;;;;;20.75;14.32;;;;;;;5.45;100.00;96377.03;5003512;28;20045;-68
2022/11/29 03:18:18;;;;;;;23.50;14.25;;;;;;;5.45;100.00;96369.69;5004199;28;20364;-68
2022/11/29 03:20:46;;;;;;;22.65;14.40;;;;;;;5.46;100.00;96365.84;5004645;28;20030;-67
2022/11/29 03:23:26;;;;;;;22.33;14.05;;;;;;;5.49;100.00;96377.94;4996518;28;20041;-68
2022/11/29 03:26:13;;;;;;;21.42;14.32;;;;;;;5.46;100.00;96371.28;5003918;28;20099;-67
2022/11/29 03:28:45;;;;;;;24.63;15.63;;;;;;;5.46;100.00;96376.72;5004401;28;20042;-66
2022/11/29 03:31:19;;;;;;;21.17;14.40;;;;;;;5.46;100.00;96374.00;4989863;28;20050;-68
2022/11/29 03:34:04;;;;;;;19.05;13.50;;;;;;;5.46;100.00;96381.34;5004861;28;20042;-68
2022/11/29 03:37:02;;;;;;;22.40;13.93;;;;;;;5.42;100.00;96383.97;5003088;28;20088;-69
2022/11/29 03:39:50;;;;;;;23.48;14.45;;;;;;;5.23;100.00;96378.31;4997333;28;20046;-71
2022/11/29 03:42:25;;;;;;;25.15;16.25;;;;;;;5.14;100.00;96381.13;4999339;28;20042;-67
2022/11/29 03:45:09;;;;;;;24.83;16.55;;;;;;;5.09;100.00;96381.34;4998230;28;20506;-69
2022/11/29 03:47:43;;;;;;;25.25;16.48;;;;;;;5.04;100.00;96376.94;4998470;28;20038;-68
2022/11/29 03:50:15;;;;;;;24.58;16.77;;;;;;;5.03;100.00;96377.28;4999402;28;20168;-67
2022/11/29 03:52:52;;;;;;;22.35;16.55;;;;;;;5.08;100.00;96379.78;5002416;28;20057;-69
2022/11/29 03:55:20;;;;;;;24.55;16.88;;;;;;;5.21;100.00;96375.94;4995675;28;20068;-68
2022/11/29 03:57:48;;;;;;;22.17;15.88;;;;;;;5.29;100.00;96372.28;5003661;28;20044;-67
2022/11/29 04:00:15;;;;;;;27.65;17.83;;;;;;;5.28;100.00;96376.16;4999859;28;20132;-71
2022/11/29 04:03:28;;;;;;;22.70;15.95;;;;;;;5.31;100.00;96372.75;5003665;28;20038;-68
2022/11/29 04:06:13;;;;;;;26.40;15.52;;;;;;;5.35;100.00;96379.09;5000474;28;20053;-70
2022/11/29 04:08:49;;;;;;;22.88;15.65;;;;;;;5.37;100.00;96378.75;5004343;28;20399;-72
2022/11/29 04:11:17;;;;;;;22.08;15.90;;;;;;;5.38;100.00;96374.88;4999333;28;20051;-70
2022/11/29 04:14:03;;;;;;;24.85;17.33;;;;;;;5.24;100.00;96380.69;5005645;28;20038;-68
2022/11/29 04:16:53;;;;;;;32.65;19.60;;;;;;;4.85;100.00;96380.19;5000694;28;20053;-65
2022/11/29 04:19:37;;;;;;;37.60;22.05;;;;;;;4.62;100.00;96376.31;4988459;28;20495;-71
2022/11/29 04:22:22;;;;;;;36.17;22.30;;;;;;;4.57;100.00;96378.13;4962248;28;20563;-71
2022/11/29 04:25:16;;;;;;;44.13;22.67;;;;;;;4.57;100.00;96380.81;4964914;28;20039;-68
2022/11/29 04:28:22;;;;;;;37.63;23.50;;;;;;;4.55;100.00;96377.63;4983098;28;20038;-66
2022/11/29 04:31:15;;;;;;;38.72;23.38;;;;;;;4.56;100.00;96379.22;4978695;28;20096;-68
2022/11/29 04:34:13;;;;;;;40.13;23.08;;;;;;;4.59;100.00;96380.47;4985106;28;20070;-69
2022/11/29 04:36:58;;;;;;;39.55;23.83;;;;;;;4.63;100.00;96377.88;4984515;28;20050;-67
2022/11/29 04:39:44;;;;;;;35.97;22.38;;;;;;;4.68;100.00;96380.38;4978865;28;20047;-69
2022/11/29 04:42:25;;;;;;;33.35;21.08;;;;;;;4.68;100.00;96383.91;4977930;28;20061;-70
2022/11/29 04:44:56;;;;;;;36.35;21.65;;;;;;;4.70;100.00;96387.06;4989050;28;20045;-68
2022/11/29 04:47:36;;;;;;;35.05;22.52;;;;;;;4.76;100.00;96385.72;4996110;28;20069;-66
2022/11/29 04:50:40;;;;;;;35.22;20.52;;;;;;;4.86;100.00;96395.34;5000140;28;20050;-72
2022/11/29 04:53:20;;;;;;;32.65;20.38;;;;;;;4.90;100.00;96396.25;4998366;28;20109;-65
2022/11/29 04:55:56;;;;;;;31.77;20.50;;;;;;;4.92;100.00;96395.94;5003309;28;20617;-67
2022/11/29 04:58:42;;;;;;;30.73;19.70;;;;;;;4.99;100.00;96404.31;4997537;28;20046;-67
2022/11/29 05:01:26;;;;;;;30.45;20.08;;;;;;;5.04;100.00;96397.84;4978871;28;20069;-66
2022/11/29 05:04:09;;;;;;;32.88;18.73;;;;;;;5.03;100.00;96394.34;4999781;28;20042;-70
2022/11/29 05:06:55;;;;;;;32.45;20.02;;;;;;;5.01;100.00;96401.25;5000364;28;20081;-69
2022/11/29 05:10:24;;;;;;;30.88;20.02;;;;;;;4.99;100.00;96398.88;4999221;28;20108;-69
2022/11/29 05:12:49;;;;;;;;;;;;;;;4.91;100.00;96407.91;4998360;28;20053;-68
2022/11/29 05:15:15;;;;;;;33.15;20.58;;;;;;;4.85;100.00;96404.63;4999617;28;19920;-69
2022/11/29 05:17:57;;;;;;;38.13;22.23;;;;;;;4.89;100.00;96410.94;5002666;28;20041;-70
2022/11/29 05:20:41;;;;;;;35.38;20.85;;;;;;;4.90;100.00;96414.47;5015019;28;20256;-69
2022/11/29 05:23:22;;;;;;;36.70;22.20;;;;;;;4.83;100.00;96417.72;5000603;28;20109;-69
2022/11/29 05:26:15;;;;;;;35.75;21.90;;;;;;;4.59;100.00;96415.72;5002525;28;20558;-68
2022/11/29 05:29:24;;;;;;;28.27;18.02;;;;;;;4.54;100.00;96424.09;4986337;28;20054;-69
2022/11/29 05:32:08;;;;;;;27.35;18.58;;;;;;;4.54;100.00;96419.47;4993917;28;20046;-68
2022/11/29 05:34:54;;;;;;;27.45;18.58;;;;;;;4.60;100.00;96417.31;5001705;28;20069;-70
2022/11/29 05:37:51;;;;;;;29.77;18.60;;;;;;;4.72;100.00;96422.00;4994244;28;20493;-68
2022/11/29 05:40:31;;;;;;;27.42;17.65;;;;;;;4.73;100.00;96413.50;4997835;28;20038;-70
2022/11/29 05:43:12;;;;;;;30.83;18.67;;;;;;;4.77;100.00;96421.78;5001434;28;20127;-68
2022/11/29 05:46:01;;;;;;;27.58;18.88;;;;;;;4.84;100.00;96419.28;5015962;28;20038;-68
2022/11/29 05:48:36;;;;;;;27.73;18.43;;;;;;;4.89;100.00;96421.81;4996036;28;20065;-68
2022/11/29 05:51:43;;;;;;;25.75;16.95;;;;;;;4.92;100.00;96423.06;4999453;28;20044;-65
2022/11/29 05:54:30;;;;;;;26.38;17.02;;;;;;;4.97;100.00;96434.50;4995773;28;20034;-70
2022/11/29 05:57:04;;;;;;;25.30;16.73;;;;;;;5.07;100.00;96435.19;5001500;28;20462;-69
2022/11/29 05:59:30;;;;;;;25.90;16.45;;;;;;;5.07;100.00;96440.63;4999089;28;20121;-69
2022/11/29 06:02:24;;;;;;;25.38;16.55;;;;;;;5.06;100.00;96433.59;5002178;28;20067;-70
2022/11/29 06:04:56;;;;;;;27.05;15.13;;;;;;;5.06;100.00;96439.00;5002279;28;20094;-70
2022/11/29 06:07:36;;;;;;;22.95;15.80;;;;;;;5.09;100.00;96436.41;4996461;28;20486;-69
2022/11/29 06:10:11;;;;;;;22.65;16.23;;;;;;;5.11;100.00;96438.81;4999846;28;20509;-68
2022/11/29 06:12:37;;;;;;;20.08;14.85;;;;;;;5.07;100.00;96430.53;5016795;28;20698;-69
2022/11/29 06:15:36;;;;;;;22.75;15.70;;;;;;;4.90;100.00;96433.47;4999391;28;20034;-68
2022/11/29 06:18:38;;;;;;;22.05;15.40;;;;;;;4.81;100.00;96430.03;5002572;28;20079;-68
2022/11/29 06:21:26;;;;;;;20.67;14.80;;;;;;;4.88;100.00;96446.56;4998683;28;20041;-67
2022/11/29 06:24:05;;;;;;;22.05;15.98;;;;;;;4.97;100.00;96442.63;5000101;28;20061;-68
2022/11/29 06:27:01;;;;;;;25.67;15.87;;;;;;;5.02;100.00;96444.31;4999689;28;20496;-70
2022/11/29 06:29:49;;;;;;;26.05;17.63;;;;;;;5.01;100.00;96440.03;4994383;28;20107;-70
2022/11/29 06:32:39;;;;;;;24.10;17.27;;;;;;;5.04;100.00;96450.25;4988438;28;20033;-68
2022/11/29 06:35:34;;;;;;;23.75;17.30;;;;;;;4.98;100.00;96451.56;4996675;28;20137;-66
2022/11/29 06:38:16;;;;;;;26.38;17.10;;;;;;;4.85;100.00;96453.47;4983077;28;20089;-68
2022/11/29 06:40:42;;;;;;;24.55;17.08;;;;;;;4.78;100.00;96464.84;5007012;28;20073;-70
2022/11/29 06:43:08;;;;;;;23.90;16.15;;;;;;;4.74;100.00;96465.88;4997297;28;20085;-70
2022/11/29 06:45:34;;;;;;;20.27;15.18;;;;;;;4.73;100.00;96465.06;4999185;28;20041;-69
2022/11/29 06:48:05;;;;;;;26.08;15.43;;;;;;;4.83;100.00;96457.66;5000809;28;20491;-69
2022/11/29 06:50:58;;;;;;;25.85;15.90;;;;;;;4.88;100.00;96454.69;4997468;28;20540;-69
2022/11/29 06:53:37;;;;;;;27.63;18.05;;;;;;;4.88;100.00;96466.38;4995604;28;20841;-68
2022/11/29 06:56:15;;;;;;;24.45;16.65;;;;;;;4.84;100.00;96465.44;5029572;28;20153;-68
2022/11/29 06:59:07;;;;;;;23.77;15.95;;;;;;;4.87;100.00;96466.69;5001841;28;20688;-69
2022/11/29 07:01:55;;;;;;;24.00;15.70;;;;;;;4.96;100.00;96473.59;5014594;28;20108;-70
2022/11/29 07:04:32;;;;;;;22.38;14.52;;;;;;;5.06;100.00;96468.88;4996101;28;20048;-71
2022/11/29 07:06:58;;;;;;;22.05;14.77;;;;;;;5.15;100.00;96470.38;4994415;28;20046;-71
2022/11/29 07:09:32;;;;;;;26.42;14.13;;;;;;;5.21;100.00;96472.88;4995346;28;20523;-68
2022/11/29 07:11:58;;;;;;;22.10;15.20;;;;;;;5.24;100.00;96477.63;5001028;28;20041;-71
2022/11/29 07:14:23;;;;;;;21.73;14.38;;;;;;;5.28;100.00;96475.84;4995687;28;20285;-69
2022/11/29 07:16:58;;;;;;;26.48;14.95;;;;;;;5.30;100.00;96477.06;5000704;28;20046;-69
2022/11/29 07:19:26;;;;;;;22.65;14.23;;;;;;;5.39;100.00;96476.97;4996071;28;20058;-68
2022/11/29 07:22:21;;;;;;;23.35;13.90;;;;;;;5.44;100.00;96475.94;5003357;28;20038;-69
2022/11/29 07:25:06;;;;;;;23.02;13.85;;;;;;;5.44;100.00;96484.09;5004967;28;20108;-69
2022/11/29 07:27:43;;;;;;;25.10;13.52;;;;;;;5.36;100.00;96480.34;5001602;28;20038;-69
2022/11/29 07:30:13;;;;;;;22.50;13.93;;;;;;;5.34;100.00;96488.06;4996916;28;20053;-68
2022/11/29 07:32:44;;;;;;;25.08;14.13;;;;;;;5.32;100.00;96487.59;4992556;28;20041;-67
2022/11/29 07:35:23;;;;;;;24.95;14.02;;;;;;;5.35;100.00;96485.00;4994357;28;20152;-68
2022/11/29 07:38:08;;;;;;;24.63;16.60;;;;;;;5.09;100.00;96488.00;5000493;28;20121;-70
2022/11/29 07:40:57;;;;;;;34.90;23.80;;;;;;;4.99;100.00;96485.72;5004038;28;20408;-70
2022/11/29 07:43:40;;;;;;;48.08;32.83;;;;;;;4.90;100.00;96480.38;4999424;28;20578;-69
2022/11/29 07:46:05;;;;;;;39.28;20.48;;;;;;;4.92;100.00;96489.00;4997499;28;20061;-67
2022/11/29 07:48:30;;;;;;;32.33;17.63;;;;;;;4.96;100.00;96489.09;5005422;28;20046;-67
2022/11/29 07:50:56;;;;;;;24.98;15.80;;;;;;;5.07;100.00;96489.47;5005350;28;20038;-69
2022/11/29 07:53:22;;;;;;;27.30;15.30;;;;;;;5.19;100.00;96488.72;5000444;28;20148;-71
2022/11/29 07:55:48;;;;;;;28.60;17.77;;;;;;;5.33;100.00;96492.69;5002263;28;20057;-68
2022/11/29 07:58:15;;;;;;;28.05;15.73;;;;;;;5.39;100.00;96493.28;4999235;28;20042;-69
2022/11/29 08:00:42;;;;;;;24.10;15.65;;;;;;;5.48;100.00;96495.88;5004325;28;20126;-66
2022/11/29 08:03:09;;;;;;;28.77;15.38;;;;;;;5.49;100.00;96494.75;4998755;28;20034;-68
2022/11/29 08:05:36;;;;;;;23.77;14.40;;;;;;;5.51;100.00;96498.72;4999186;28;20050;-68
2022/11/29 08:08:02;;;;;;;25.52;14.52;;;;;;;5.53;100.00;96501.88;4985494;28;20038;-68
2022/11/29 08:10:27;;;;;;;20.08;13.68;;;;;;;5.65;100.00;96505.72;4999486;28;20133;-70
2022/11/29 08:12:53;;;;;;;21.13;13.57;;;;;;;5.72;100.00;96508.69;4985021;28;20128;-68
2022/11/29 08:15:20;;;;;;;21.08;13.65;;;;;;;5.68;100.00;96508.56;4976673;28;20034;-68
2022/11/29 08:17:46;;;;;;;20.55;13.50;;;;;;;5.67;100.00;96512.44;4985514;28;20057;-68
2022/11/29 08:20:14;;;;;;;20.33;12.75;;;;;;;5.79;100.00;96508.91;4981234;28;20046;-66
2022/11/29 08:22:40;;;;;;;19.30;12.77;;;;;;;5.88;100.00;96522.38;5005767;28;20046;-70
2022/11/29 08:25:06;;;;;;;18.83;12.77;;;;;;;5.82;100.00;96516.38;4995453;28;20100;-69
2022/11/29 08:27:32;;;;;;;19.98;13.20;;;;;;;5.79;100.00;96519.00;5004425;28;20053;-67
2022/11/29 08:29:58;;;;;;;23.00;13.10;;;;;;;5.90;100.00;96518.19;5010776;28;20038;-69
2022/11/29 08:32:24;;;;;;;20.20;13.30;;;;;;;5.98;100.00;96521.97;4994716;28;20038;-69
2022/11/29 08:34:49;;;;;;;19.23;12.85;;;;;;;6.02;100.00;96516.66;5005816;28;20049;-69
2022/11/29 08:37:15;;;;;;;23.98;12.57;;;;;;;6.07;100.00;96519.13;4997555;28;20042;-68
2022/11/29 08:39:40;;;;;;;20.10;12.43;;;;;;;6.04;100.00;96520.59;5004806;28;20099;-71
2022/11/29 08:42:05;;;;;;;18.98;12.55;;;;;;;6.08;100.00;96513.34;5000668;28;20045;-67
2022/11/29 08:44:31;;;;;;;20.58;13.75;;;;;;;6.11;100.00;96523.53;5002297;28;20125;-66
2022/11/29 08:50:00;;;;;;;25.98;12.50;;;;;;;6.24;100.00;96527.03;5004643;28;20060;-69
2022/11/29 08:55:13;;;;;;;20.90;12.75;;;;;;;6.37;100.00;96518.84;4999561;28;20046;-68
2022/11/29 08:57:39;;;;;;;24.00;12.77;;;;;;;6.41;100.00;96517.03;5002784;28;20052;-68
2022/11/29 09:00:05;;;;;;;17.77;12.20;;;;;;;6.48;100.00;96517.22;4997428;28;20569;-64
2022/11/29 09:02:31;;;;;;;21.98;11.57;;;;;;;6.55;100.00;96517.44;5019218;28;20042;-68
2022/11/29 09:04:56;;;;;;;22.23;12.40;;;;;;;6.60;100.00;96524.56;5000744;28;20133;-69
2022/11/29 09:07:22;;;;;;;23.02;13.45;;;;;;;6.63;100.00;96532.06;4998330;28;20376;-69
2022/11/29 09:09:47;;;;;;;20.58;11.68;;;;;;;6.51;100.00;96525.50;4995124;28;20519;-69
2022/11/29 09:12:13;;;;;;;16.92;10.93;;;;;;;6.62;100.00;96533.19;4996311;28;20466;-67
2022/11/29 09:14:38;;;;;;;22.42;10.98;;;;;;;6.63;100.00;96529.34;4990479;28;20039;-68
2022/11/29 09:17:04;;;;;;;22.13;11.60;;;;;;;6.66;100.00;96536.78;4977788;28;20045;-65
2022/11/29 09:19:29;;;;;;;18.33;11.80;;;;;;;6.80;100.00;96541.88;4995690;28;20116;-69
2022/11/29 09:21:55;;;;;;;18.33;11.07;;;;;;;6.82;100.00;96548.53;5002260;28;20077;-68
2022/11/29 09:24:20;;;;;;;19.65;11.57;;;;;;;6.78;100.00;96544.94;4997058;28;20048;-68
2022/11/29 09:26:47;;;;;;;23.40;11.88;;;;;;;6.91;100.00;96545.66;5001422;28;20096;-67
2022/11/29 09:29:14;;;;;;;19.08;11.00;;;;;;;7.04;100.00;96546.41;4997831;28;20038;-68
2022/11/29 09:31:41;;;;;;;22.15;11.13;;;;;;;7.00;100.00;96546.31;4993628;28;20065;-70
2022/11/29 09:34:06;;;;;;;16.65;10.23;;;;;;;7.07;100.00;96546.50;4998415;28;20054;-68
2022/11/29 09:36:32;;;;;;;20.50;10.70;;;;;;;7.11;100.00;96540.38;5002134;28;20049;-69
2022/11/29 09:38:59;;;;;;;17.73;10.05;;;;;;;7.21;100.00;96545.31;5002811;28;20041;-69
2022/11/29 09:41:27;;;;;;;19.02;11.40;;;;;;;7.23;100.00;96546.56;4997064;28;20081;-68
2022/11/29 09:44:02;;;;;;;19.98;11.60;;;;;;;7.26;100.00;96547.81;5003547;28;20046;-68
2022/11/29 09:46:46;;;;;;;19.58;10.43;;;;;;;7.29;100.00;96552.53;4998280;28;20120;-68
2022/11/29 09:49:41;;;;;;;21.05;10.80;;;;;;;7.53;100.00;96554.34;4997681;28;20042;-68
2022/11/29 09:52:26;;;;;;;27.88;13.65;;;;;;;7.46;100.00;96556.88;4994612;28;20041;-64
2022/11/29 09:55:00;;;;;;;28.75;12.82;;;;;;;7.50;100.00;96559.69;5001810;28;20041;-69
2022/11/29 09:57:29;;;;;;;18.88;9.55;;;;;;;7.52;100.00;96563.66;4997145;28;20868;-68
2022/11/29 10:00:00;;;;;;;14.13;9.32;;;;;;;7.57;100.00;96566.13;5033190;28;20450;-68
2022/11/29 10:02:46;;;;;;;20.00;9.82;;;;;;;7.47;100.00;96555.72;4996641;28;20053;-68
2022/11/29 10:05:19;;;;;;;15.80;8.93;;;;;;;7.68;100.00;96562.88;4997959;28;20161;-67
2022/11/29 10:07:49;;;;;;;19.73;8.38;;;;;;;7.72;100.00;96563.75;5001479;28;20487;-69
2022/11/29 10:10:36;;;;;;;13.98;8.45;;;;;;;7.82;100.00;96552.34;4996724;28;20042;-70
2022/11/29 10:13:24;;;;;;;15.40;8.20;;;;;;;7.82;100.00;96561.31;5002216;28;20125;-68
2022/11/29 10:15:58;;;;;;;13.88;8.27;;;;;;;7.82;100.00;96557.78;5000846;28;20038;-69
2022/11/29 10:18:43;;;;;;;15.70;7.78;;;;;;;7.73;100.00;96563.41;4997271;28;20820;-69
2022/11/29 10:21:19;;;;;;;12.20;7.55;;;;;;;7.80;100.00;96557.34;4996301;28;20065;-69
2022/11/29 10:23:52;;;;;;;13.75;7.38;;;;;;;7.70;100.00;96552.41;5001520;28;20038;-69
2022/11/29 10:26:19;;;;;;;20.15;8.25;;;;;;;7.76;100.00;96559.19;4996563;28;20049;-68
2022/11/29 10:28:47;;;;;;;13.68;7.80;;;;;;;7.81;100.00;96557.00;5001596;28;20384;-70
2022/11/29 10:31:24;;;;;;;17.30;8.70;;;;;;;7.66;100.00;96555.06;4989304;28;20038;-67
2022/11/29 10:33:49;;;;;;;13.43;7.93;;;;;;;7.72;100.00;96552.84;5000248;28;20085;-69
2022/11/29 10:36:33;;;;;;;17.45;7.70;;;;;;;7.50;100.00;96555.03;4996076;28;20073;-69
2022/11/29 10:39:04;;;;;;;18.55;8.38;;;;;;;7.80;100.00;96549.97;5000338;28;20049;-68
2022/11/29 10:41:30;;;;;;;16.25;9.23;;;;;;;7.87;100.00;96554.81;5000659;28;20046;-68
2022/11/29 10:43:57;;;;;;;16.75;7.80;;;;;;;7.94;100.00;96552.25;5001673;28;20046;-70
2022/11/29 10:46:33;;;;;;;15.40;7.25;;;;;;;7.87;100.00;96551.25;4996211;28;20042;-70
2022/11/29 10:49:03;;;;;;;16.45;7.43;;;;;;;7.69;100.00;96550.81;5004044;28;20562;-69
2022/11/29 10:51:30;;;;;;;14.18;7.97;;;;;;;7.89;100.00;96552.50;5001862;28;20056;-70
2022/11/29 10:54:01;;;;;;;18.58;6.93;;;;;;;7.96;100.00;96549.97;5004727;28;20061;-70
2022/11/29 10:56:34;;;;;;;16.85;6.35;;;;;;;7.99;100.00;96549.22;5000808;28;20045;-70
2022/11/29 10:59:07;;;;;;;12.85;6.75;;;;;;;7.99;100.00;96549.22;5038299;28;20130;-68
2022/11/29 11:01:41;;;;;;;15.65;6.47;;;;;;;7.80;100.00;96541.00;5004085;28;20070;-70
2022/11/29 11:04:14;;;;;;;17.55;6.55;;;;;;;7.85;100.00;96544.25;4997944;28;20041;-70
2022/11/29 11:06:42;;;;;;;16.80;6.50;;;;;;;7.89;100.00;96549.00;5001191;28;20049;-70
2022/11/29 11:09:23;;;;;;;16.92;7.43;;;;;;;7.95;100.00;96553.03;4996250;28;20180;-65
2022/11/29 11:12:01;;;;;;;15.80;7.47;;;;;;;7.94;100.00;96549.53;5002591;28;20042;-68
2022/11/29 11:14:36;;;;;;;15.95;6.88;;;;;;;7.90;100.00;96550.56;4988629;28;20038;-68
2022/11/29 11:17:21;;;;;;;16.75;8.13;;;;;;;7.67;100.00;96548.47;5004035;28;20503;-64
2022/11/29 11:19:59;;;;;;;15.25;8.13;;;;;;;7.73;100.00;96549.78;4987901;28;20059;-69
2022/11/29 11:22:27;;;;;;;16.30;6.80;;;;;;;7.78;100.00;96551.47;4998717;28;20250;-68
2022/11/29 11:25:03;;;;;;;15.43;6.85;;;;;;;7.62;100.00;96549.50;5004000;28;20380;-68
2022/11/29 11:27:35;;;;;;;21.98;8.60;;;;;;;7.62;100.00;96548.72;5002124;28;20050;-69
2022/11/29 11:30:04;;;;;;;21.58;8.77;;;;;;;7.73;100.00;96549.78;5006403;28;20459;-68
2022/11/29 11:32:29;;;;;;;18.30;8.50;;;;;;;7.75;100.00;96550.22;4995325;28;20395;-68
2022/11/29 11:35:00;;;;;;;13.52;7.82;;;;;;;7.72;100.00;96540.00;5004711;28;20048;-70
2022/11/29 11:37:34;;;;;;;14.30;7.90;;;;;;;7.85;100.00;96549.69;4996843;28;20120;-70
2022/11/29 11:40:25;;;;;;;18.65;7.85;;;;;;;7.76;100.00;96549.09;5002910;28;20529;-70
2022/11/29 11:42:50;;;;;;;14.15;7.57;;;;;;;7.82;100.00;96544.94;5004677;28;20483;-71
2022/11/29 11:45:16;;;;;;;15.60;7.93;;;;;;;7.63;100.00;96556.56;5000120;28;20053;-69
2022/11/29 11:48:00;;;;;;;15.57;8.23;;;;;;;7.29;100.00;96549.81;5004236;28;20927;-71
2022/11/29 11:50:36;;;;;;;12.20;6.38;;;;;;;7.20;100.00;96550.00;5000185;28;20373;-70
2022/11/29 11:53:35;;;;;;;10.65;5.45;;;;;;;7.24;100.00;96550.09;5035688;28;20119;-69
2022/11/29 11:56:08;;;;;;;14.60;7.88;;;;;;;7.26;100.00;96559.47;5012668;28;20037;-70
2022/11/29 11:58:37;;;;;;;9.32;4.50;;;;;;;7.29;100.00;96552.53;5003734;28;20100;-67
2022/11/29 12:01:14;;;;;;;;;;;;;;;7.44;100.00;96554.50;5004112;28;20087;-67
2022/11/29 12:04:01;;;;;;;9.48;3.58;;;;;;;7.52;100.00;96552.75;5004448;28;20350;-68